sensor_id;sensor_type;location;lat;lon;timestamp;P1;durP1;ratioP1;P2;durP2;ratioP2
64595;SDS011;51003;51.628;6.670;2023-04-24T00:00:49;2.10;;;2.00;;
64595;SDS011;51003;51.628;6.670;2023-04-24T00:03:15;1.80;;;1.70;;
64595;SDS011;51003;51.628;6.670;2023-04-24T00:05:41;2.20;;;2.10;;
64595;SDS011;51003;51.628;6.670;2023-04-24T00:08:07;4.30;;;1.90;;
64595;SDS011;51003;51.628;6.670;2023-04-24T00:10:33;3.20;;;1.90;;
64595;SDS011;51003;51.628;6.670;2023-04-24T00:12:58;2.07;;;1.97;;
64595;SDS011;51003;51.628;6.670;2023-04-24T00:15:23;1.87;;;1.77;;
64595;SDS011;51003;51.628;6.670;2023-04-24T00:17:49;1.53;;;1.43;;
64595;SDS011;51003;51.628;6.670;2023-04-24T00:20:14;2.17;;;2.07;;
64595;SDS011;51003;51.628;6.670;2023-04-24T00:22:40;2.00;;;1.90;;
64595;SDS011;51003;51.628;6.670;2023-04-24T00:25:06;2.60;;;1.97;;
64595;SDS011;51003;51.628;6.670;2023-04-24T00:27:31;2.30;;;2.17;;
64595;SDS011;51003;51.628;6.670;2023-04-24T00:29:57;2.53;;;2.20;;
64595;SDS011;51003;51.628;6.670;2023-04-24T00:32:22;2.47;;;2.27;;
64595;SDS011;51003;51.628;6.670;2023-04-24T00:34:48;2.30;;;2.10;;
64595;SDS011;51003;51.628;6.670;2023-04-24T00:37:14;2.60;;;2.40;;
64595;SDS011;51003;51.628;6.670;2023-04-24T00:39:40;2.87;;;2.53;;
64595;SDS011;51003;51.628;6.670;2023-04-24T00:42:06;2.80;;;2.60;;
64595;SDS011;51003;51.628;6.670;2023-04-24T00:44:32;2.50;;;2.30;;
64595;SDS011;51003;51.628;6.670;2023-04-24T00:46:58;2.60;;;2.40;;
64595;SDS011;51003;51.628;6.670;2023-04-24T00:49:24;3.63;;;3.10;;
64595;SDS011;51003;51.628;6.670;2023-04-24T00:51:50;3.20;;;3.00;;
64595;SDS011;51003;51.628;6.670;2023-04-24T00:54:16;2.90;;;2.70;;
64595;SDS011;51003;51.628;6.670;2023-04-24T00:56:42;2.80;;;2.60;;
64595;SDS011;51003;51.628;6.670;2023-04-24T00:59:09;3.53;;;3.00;;
64595;SDS011;51003;51.628;6.670;2023-04-24T01:01:35;2.80;;;2.60;;
64595;SDS011;51003;51.628;6.670;2023-04-24T01:04:01;3.23;;;2.93;;
64595;SDS011;51003;51.628;6.670;2023-04-24T01:06:27;3.83;;;3.27;;
64595;SDS011;51003;51.628;6.670;2023-04-24T01:08:53;4.33;;;3.47;;
64595;SDS011;51003;51.628;6.670;2023-04-24T01:11:20;4.37;;;3.03;;
64595;SDS011;51003;51.628;6.670;2023-04-24T01:13:46;4.00;;;3.60;;
64595;SDS011;51003;51.628;6.670;2023-04-24T01:16:13;3.50;;;3.20;;
64595;SDS011;51003;51.628;6.670;2023-04-24T01:18:40;5.07;;;3.77;;
64595;SDS011;51003;51.628;6.670;2023-04-24T01:21:06;4.43;;;3.93;;
64595;SDS011;51003;51.628;6.670;2023-04-24T01:23:33;4.20;;;3.80;;
64595;SDS011;51003;51.628;6.670;2023-04-24T01:25:58;4.40;;;4.00;;
64595;SDS011;51003;51.628;6.670;2023-04-24T01:28:24;6.50;;;4.50;;
64595;SDS011;51003;51.628;6.670;2023-04-24T01:30:50;6.43;;;4.50;;
64595;SDS011;51003;51.628;6.670;2023-04-24T01:33:16;5.33;;;4.40;;
64595;SDS011;51003;51.628;6.670;2023-04-24T01:35:42;6.70;;;5.17;;
64595;SDS011;51003;51.628;6.670;2023-04-24T01:38:07;6.00;;;4.90;;
64595;SDS011;51003;51.628;6.670;2023-04-24T01:40:33;8.63;;;5.30;;
64595;SDS011;51003;51.628;6.670;2023-04-24T01:42:59;6.40;;;4.80;;
64595;SDS011;51003;51.628;6.670;2023-04-24T01:45:25;9.23;;;5.77;;
64595;SDS011;51003;51.628;6.670;2023-04-24T01:47:51;5.97;;;4.80;;
64595;SDS011;51003;51.628;6.670;2023-04-24T01:50:17;7.90;;;5.40;;
64595;SDS011;51003;51.628;6.670;2023-04-24T01:52:43;8.20;;;4.97;;
64595;SDS011;51003;51.628;6.670;2023-04-24T01:55:09;7.43;;;5.70;;
64595;SDS011;51003;51.628;6.670;2023-04-24T01:57:35;6.83;;;5.90;;
64595;SDS011;51003;51.628;6.670;2023-04-24T02:00:02;5.90;;;5.30;;
64595;SDS011;51003;51.628;6.670;2023-04-24T02:02:29;7.13;;;4.90;;
64595;SDS011;51003;51.628;6.670;2023-04-24T02:04:56;7.73;;;5.23;;
64595;SDS011;51003;51.628;6.670;2023-04-24T02:07:22;6.40;;;5.10;;
64595;SDS011;51003;51.628;6.670;2023-04-24T02:09:47;11.40;;;5.50;;
64595;SDS011;51003;51.628;6.670;2023-04-24T02:12:13;7.23;;;5.50;;
64595;SDS011;51003;51.628;6.670;2023-04-24T02:14:39;7.60;;;5.50;;
64595;SDS011;51003;51.628;6.670;2023-04-24T02:17:05;8.53;;;5.53;;
64595;SDS011;51003;51.628;6.670;2023-04-24T02:19:31;8.60;;;6.87;;
64595;SDS011;51003;51.628;6.670;2023-04-24T02:21:56;8.23;;;6.40;;
64595;SDS011;51003;51.628;6.670;2023-04-24T02:24:22;12.30;;;6.50;;
64595;SDS011;51003;51.628;6.670;2023-04-24T02:26:47;9.47;;;6.87;;
64595;SDS011;51003;51.628;6.670;2023-04-24T02:29:13;11.13;;;7.00;;
64595;SDS011;51003;51.628;6.670;2023-04-24T02:31:38;10.90;;;6.77;;
64595;SDS011;51003;51.628;6.670;2023-04-24T02:34:04;12.80;;;6.80;;
64595;SDS011;51003;51.628;6.670;2023-04-24T02:36:29;12.63;;;7.60;;
64595;SDS011;51003;51.628;6.670;2023-04-24T02:38:55;11.27;;;7.10;;
64595;SDS011;51003;51.628;6.670;2023-04-24T02:41:21;11.83;;;7.60;;
64595;SDS011;51003;51.628;6.670;2023-04-24T02:43:46;11.67;;;7.00;;
64595;SDS011;51003;51.628;6.670;2023-04-24T02:46:12;10.97;;;7.87;;
64595;SDS011;51003;51.628;6.670;2023-04-24T02:48:37;12.03;;;7.63;;
64595;SDS011;51003;51.628;6.670;2023-04-24T02:51:03;17.53;;;8.53;;
64595;SDS011;51003;51.628;6.670;2023-04-24T02:53:29;10.73;;;7.50;;
64595;SDS011;51003;51.628;6.670;2023-04-24T02:55:55;14.10;;;8.20;;
64595;SDS011;51003;51.628;6.670;2023-04-24T02:58:21;14.80;;;8.07;;
64595;SDS011;51003;51.628;6.670;2023-04-24T03:00:46;15.83;;;8.10;;
64595;SDS011;51003;51.628;6.670;2023-04-24T03:03:13;11.93;;;8.27;;
64595;SDS011;51003;51.628;6.670;2023-04-24T03:05:39;14.87;;;9.10;;
64595;SDS011;51003;51.628;6.670;2023-04-24T03:08:04;12.73;;;8.50;;
64595;SDS011;51003;51.628;6.670;2023-04-24T03:10:31;16.53;;;9.40;;
64595;SDS011;51003;51.628;6.670;2023-04-24T03:12:57;14.80;;;8.20;;
64595;SDS011;51003;51.628;6.670;2023-04-24T03:15:22;16.20;;;9.43;;
64595;SDS011;51003;51.628;6.670;2023-04-24T03:17:48;13.27;;;8.53;;
64595;SDS011;51003;51.628;6.670;2023-04-24T03:20:14;12.83;;;9.33;;
64595;SDS011;51003;51.628;6.670;2023-04-24T03:22:39;18.70;;;10.10;;
64595;SDS011;51003;51.628;6.670;2023-04-24T03:25:05;13.57;;;8.33;;
64595;SDS011;51003;51.628;6.670;2023-04-24T03:27:33;15.27;;;9.50;;
64595;SDS011;51003;51.628;6.670;2023-04-24T03:29:58;16.87;;;9.70;;
64595;SDS011;51003;51.628;6.670;2023-04-24T03:32:23;13.47;;;8.93;;
64595;SDS011;51003;51.628;6.670;2023-04-24T03:34:49;20.30;;;9.40;;
64595;SDS011;51003;51.628;6.670;2023-04-24T03:37:15;16.90;;;9.50;;
64595;SDS011;51003;51.628;6.670;2023-04-24T03:39:41;16.33;;;9.00;;
64595;SDS011;51003;51.628;6.670;2023-04-24T03:42:06;15.37;;;9.17;;
64595;SDS011;51003;51.628;6.670;2023-04-24T03:44:33;14.40;;;9.10;;
64595;SDS011;51003;51.628;6.670;2023-04-24T03:46:59;16.13;;;9.70;;
64595;SDS011;51003;51.628;6.670;2023-04-24T03:49:24;16.60;;;9.33;;
64595;SDS011;51003;51.628;6.670;2023-04-24T03:51:49;12.90;;;8.50;;
64595;SDS011;51003;51.628;6.670;2023-04-24T03:54:15;16.17;;;8.40;;
64595;SDS011;51003;51.628;6.670;2023-04-24T03:56:41;13.97;;;8.60;;
64595;SDS011;51003;51.628;6.670;2023-04-24T03:59:07;13.67;;;8.50;;
64595;SDS011;51003;51.628;6.670;2023-04-24T04:01:33;16.00;;;9.23;;
64595;SDS011;51003;51.628;6.670;2023-04-24T04:04:01;14.20;;;8.37;;
64595;SDS011;51003;51.628;6.670;2023-04-24T04:06:28;16.27;;;9.47;;
64595;SDS011;51003;51.628;6.670;2023-04-24T04:08:55;14.20;;;9.00;;
64595;SDS011;51003;51.628;6.670;2023-04-24T04:11:21;15.73;;;10.37;;
64595;SDS011;51003;51.628;6.670;2023-04-24T04:13:46;14.40;;;8.97;;
64595;SDS011;51003;51.628;6.670;2023-04-24T04:16:13;14.90;;;8.80;;
64595;SDS011;51003;51.628;6.670;2023-04-24T04:18:38;14.60;;;8.83;;
64595;SDS011;51003;51.628;6.670;2023-04-24T04:21:04;16.80;;;9.50;;
64595;SDS011;51003;51.628;6.670;2023-04-24T04:23:30;15.17;;;9.10;;
64595;SDS011;51003;51.628;6.670;2023-04-24T04:25:56;12.03;;;8.07;;
64595;SDS011;51003;51.628;6.670;2023-04-24T04:28:22;14.60;;;9.27;;
64595;SDS011;51003;51.628;6.670;2023-04-24T04:30:49;14.07;;;9.30;;
64595;SDS011;51003;51.628;6.670;2023-04-24T04:33:19;19.60;;;9.17;;
64595;SDS011;51003;51.628;6.670;2023-04-24T04:35:45;13.70;;;8.70;;
64595;SDS011;51003;51.628;6.670;2023-04-24T04:38:13;14.57;;;8.43;;
64595;SDS011;51003;51.628;6.670;2023-04-24T04:40:40;15.80;;;8.10;;
64595;SDS011;51003;51.628;6.670;2023-04-24T04:43:06;12.83;;;7.83;;
64595;SDS011;51003;51.628;6.670;2023-04-24T04:45:32;13.80;;;8.63;;
64595;SDS011;51003;51.628;6.670;2023-04-24T04:47:59;13.30;;;8.70;;
64595;SDS011;51003;51.628;6.670;2023-04-24T04:50:25;10.73;;;7.93;;
64595;SDS011;51003;51.628;6.670;2023-04-24T04:52:51;12.07;;;8.50;;
64595;SDS011;51003;51.628;6.670;2023-04-24T04:55:17;13.47;;;8.30;;
64595;SDS011;51003;51.628;6.670;2023-04-24T04:57:44;11.10;;;7.80;;
64595;SDS011;51003;51.628;6.670;2023-04-24T05:00:11;12.90;;;8.47;;
64595;SDS011;51003;51.628;6.670;2023-04-24T05:02:37;10.83;;;8.07;;
64595;SDS011;51003;51.628;6.670;2023-04-24T05:05:03;12.33;;;7.73;;
64595;SDS011;51003;51.628;6.670;2023-04-24T05:07:28;13.10;;;7.63;;
64595;SDS011;51003;51.628;6.670;2023-04-24T05:09:54;12.70;;;9.10;;
64595;SDS011;51003;51.628;6.670;2023-04-24T05:12:20;14.50;;;8.00;;
64595;SDS011;51003;51.628;6.670;2023-04-24T05:14:45;10.93;;;8.00;;
64595;SDS011;51003;51.628;6.670;2023-04-24T05:17:10;9.87;;;7.70;;
64595;SDS011;51003;51.628;6.670;2023-04-24T05:19:36;12.90;;;8.30;;
64595;SDS011;51003;51.628;6.670;2023-04-24T05:22:03;11.50;;;8.07;;
64595;SDS011;51003;51.628;6.670;2023-04-24T05:24:30;10.70;;;7.57;;
64595;SDS011;51003;51.628;6.670;2023-04-24T05:26:56;12.53;;;7.60;;
64595;SDS011;51003;51.628;6.670;2023-04-24T05:29:23;10.70;;;7.10;;
64595;SDS011;51003;51.628;6.670;2023-04-24T05:31:51;12.17;;;7.03;;
64595;SDS011;51003;51.628;6.670;2023-04-24T05:34:16;9.87;;;6.73;;
64595;SDS011;51003;51.628;6.670;2023-04-24T05:36:42;11.73;;;6.60;;
64595;SDS011;51003;51.628;6.670;2023-04-24T05:39:08;8.60;;;7.03;;
64595;SDS011;51003;51.628;6.670;2023-04-24T05:41:33;9.43;;;6.83;;
64595;SDS011;51003;51.628;6.670;2023-04-24T05:43:59;8.10;;;6.57;;
64595;SDS011;51003;51.628;6.670;2023-04-24T05:46:24;6.30;;;5.37;;
64595;SDS011;51003;51.628;6.670;2023-04-24T05:48:50;9.20;;;6.60;;
64595;SDS011;51003;51.628;6.670;2023-04-24T05:51:15;7.70;;;5.80;;
64595;SDS011;51003;51.628;6.670;2023-04-24T05:53:41;8.33;;;5.87;;
64595;SDS011;51003;51.628;6.670;2023-04-24T05:56:07;9.47;;;6.50;;
64595;SDS011;51003;51.628;6.670;2023-04-24T05:58:32;9.10;;;6.13;;
64595;SDS011;51003;51.628;6.670;2023-04-24T06:00:58;9.33;;;6.60;;
64595;SDS011;51003;51.628;6.670;2023-04-24T06:03:26;9.77;;;7.00;;
64595;SDS011;51003;51.628;6.670;2023-04-24T06:05:52;8.73;;;6.40;;
64595;SDS011;51003;51.628;6.670;2023-04-24T06:08:18;8.10;;;6.63;;
64595;SDS011;51003;51.628;6.670;2023-04-24T06:10:45;7.43;;;5.90;;
64595;SDS011;51003;51.628;6.670;2023-04-24T06:13:11;7.87;;;6.00;;
64595;SDS011;51003;51.628;6.670;2023-04-24T06:15:37;10.77;;;6.57;;
64595;SDS011;51003;51.628;6.670;2023-04-24T06:18:03;10.00;;;7.13;;
64595;SDS011;51003;51.628;6.670;2023-04-24T06:20:29;9.10;;;6.93;;
64595;SDS011;51003;51.628;6.670;2023-04-24T06:22:55;14.93;;;7.40;;
64595;SDS011;51003;51.628;6.670;2023-04-24T06:25:21;7.43;;;5.90;;
64595;SDS011;51003;51.628;6.670;2023-04-24T06:27:47;9.73;;;7.00;;
64595;SDS011;51003;51.628;6.670;2023-04-24T06:30:13;10.00;;;6.50;;
64595;SDS011;51003;51.628;6.670;2023-04-24T06:32:39;8.87;;;6.00;;
64595;SDS011;51003;51.628;6.670;2023-04-24T06:35:05;9.40;;;6.53;;
64595;SDS011;51003;51.628;6.670;2023-04-24T06:37:32;8.73;;;6.70;;
64595;SDS011;51003;51.628;6.670;2023-04-24T06:39:58;10.90;;;6.97;;
64595;SDS011;51003;51.628;6.670;2023-04-24T06:42:23;7.50;;;6.00;;
64595;SDS011;51003;51.628;6.670;2023-04-24T06:44:49;10.00;;;6.43;;
64595;SDS011;51003;51.628;6.670;2023-04-24T06:47:15;9.23;;;6.13;;
64595;SDS011;51003;51.628;6.670;2023-04-24T06:49:41;7.57;;;5.33;;
64595;SDS011;51003;51.628;6.670;2023-04-24T06:52:07;10.93;;;5.43;;
64595;SDS011;51003;51.628;6.670;2023-04-24T06:54:33;9.87;;;6.13;;
64595;SDS011;51003;51.628;6.670;2023-04-24T06:56:58;6.63;;;5.27;;
64595;SDS011;51003;51.628;6.670;2023-04-24T06:59:25;6.63;;;4.73;;
64595;SDS011;51003;51.628;6.670;2023-04-24T07:01:52;6.13;;;4.07;;
64595;SDS011;51003;51.628;6.670;2023-04-24T07:04:18;4.80;;;4.40;;
64595;SDS011;51003;51.628;6.670;2023-04-24T07:06:44;6.60;;;4.10;;
64595;SDS011;51003;51.628;6.670;2023-04-24T07:09:11;6.20;;;4.47;;
64595;SDS011;51003;51.628;6.670;2023-04-24T07:11:38;4.70;;;4.20;;
64595;SDS011;51003;51.628;6.670;2023-04-24T07:14:05;5.90;;;4.30;;
64595;SDS011;51003;51.628;6.670;2023-04-24T07:16:31;4.40;;;4.00;;
64595;SDS011;51003;51.628;6.670;2023-04-24T07:18:57;5.73;;;4.47;;
64595;SDS011;51003;51.628;6.670;2023-04-24T07:21:22;4.63;;;3.53;;
64595;SDS011;51003;51.628;6.670;2023-04-24T07:23:48;4.17;;;3.77;;
64595;SDS011;51003;51.628;6.670;2023-04-24T07:26:14;3.00;;;2.80;;
64595;SDS011;51003;51.628;6.670;2023-04-24T07:28:40;3.33;;;2.50;;
64595;SDS011;51003;51.628;6.670;2023-04-24T07:31:06;2.60;;;2.40;;
64595;SDS011;51003;51.628;6.670;2023-04-24T07:33:32;3.13;;;2.83;;
64595;SDS011;51003;51.628;6.670;2023-04-24T07:35:58;2.83;;;2.53;;
64595;SDS011;51003;51.628;6.670;2023-04-24T07:38:23;2.43;;;2.23;;
64595;SDS011;51003;51.628;6.670;2023-04-24T07:40:50;2.00;;;1.90;;
64595;SDS011;51003;51.628;6.670;2023-04-24T07:43:16;1.87;;;1.77;;
64595;SDS011;51003;51.628;6.670;2023-04-24T07:45:42;1.80;;;1.70;;
64595;SDS011;51003;51.628;6.670;2023-04-24T07:48:07;1.90;;;1.80;;
64595;SDS011;51003;51.628;6.670;2023-04-24T07:50:34;1.93;;;1.83;;
64595;SDS011;51003;51.628;6.670;2023-04-24T07:52:59;1.93;;;1.83;;
64595;SDS011;51003;51.628;6.670;2023-04-24T07:55:25;2.00;;;1.90;;
64595;SDS011;51003;51.628;6.670;2023-04-24T07:57:51;1.60;;;1.50;;
64595;SDS011;51003;51.628;6.670;2023-04-24T08:00:16;1.60;;;1.50;;
64595;SDS011;51003;51.628;6.670;2023-04-24T08:02:42;1.80;;;1.70;;
64595;SDS011;51003;51.628;6.670;2023-04-24T08:05:08;1.70;;;1.53;;
64595;SDS011;51003;51.628;6.670;2023-04-24T08:07:34;1.83;;;1.73;;
64595;SDS011;51003;51.628;6.670;2023-04-24T08:10:00;1.80;;;1.70;;
64595;SDS011;51003;51.628;6.670;2023-04-24T08:12:27;2.07;;;1.97;;
64595;SDS011;51003;51.628;6.670;2023-04-24T08:14:54;2.10;;;1.90;;
64595;SDS011;51003;51.628;6.670;2023-04-24T08:17:19;3.50;;;2.07;;
64595;SDS011;51003;51.628;6.670;2023-04-24T08:19:45;2.00;;;1.90;;
64595;SDS011;51003;51.628;6.670;2023-04-24T08:22:13;2.20;;;2.10;;
64595;SDS011;51003;51.628;6.670;2023-04-24T08:24:39;5.00;;;2.03;;
64595;SDS011;51003;51.628;6.670;2023-04-24T08:27:05;2.47;;;2.27;;
64595;SDS011;51003;51.628;6.670;2023-04-24T08:29:31;2.87;;;2.40;;
64595;SDS011;51003;51.628;6.670;2023-04-24T08:31:56;1.97;;;1.87;;
64595;SDS011;51003;51.628;6.670;2023-04-24T08:34:23;2.00;;;1.90;;
64595;SDS011;51003;51.628;6.670;2023-04-24T08:36:49;2.10;;;2.00;;
64595;SDS011;51003;51.628;6.670;2023-04-24T08:39:15;2.43;;;1.77;;
64595;SDS011;51003;51.628;6.670;2023-04-24T08:41:42;1.70;;;1.60;;
64595;SDS011;51003;51.628;6.670;2023-04-24T08:44:09;1.40;;;1.30;;
64595;SDS011;51003;51.628;6.670;2023-04-24T08:46:35;1.30;;;1.20;;
64595;SDS011;51003;51.628;6.670;2023-04-24T08:49:01;1.00;;;1.00;;
64595;SDS011;51003;51.628;6.670;2023-04-24T08:51:27;1.40;;;1.30;;
64595;SDS011;51003;51.628;6.670;2023-04-24T08:53:53;2.00;;;1.20;;
64595;SDS011;51003;51.628;6.670;2023-04-24T08:56:19;0.90;;;0.90;;
64595;SDS011;51003;51.628;6.670;2023-04-24T08:58:48;1.80;;;0.87;;
64595;SDS011;51003;51.628;6.670;2023-04-24T09:01:18;0.77;;;0.77;;
64595;SDS011;51003;51.628;6.670;2023-04-24T09:03:45;2.60;;;1.03;;
64595;SDS011;51003;51.628;6.670;2023-04-24T09:06:11;1.93;;;1.40;;
64595;SDS011;51003;51.628;6.670;2023-04-24T09:08:37;2.20;;;2.10;;
64595;SDS011;51003;51.628;6.670;2023-04-24T09:11:04;2.90;;;2.70;;
64595;SDS011;51003;51.628;6.670;2023-04-24T09:13:30;3.77;;;3.47;;
64595;SDS011;51003;51.628;6.670;2023-04-24T09:15:56;3.93;;;3.47;;
64595;SDS011;51003;51.628;6.670;2023-04-24T09:18:22;5.87;;;3.70;;
64595;SDS011;51003;51.628;6.670;2023-04-24T09:20:58;4.90;;;4.07;;
64595;SDS011;51003;51.628;6.670;2023-04-24T09:23:31;5.03;;;4.30;;
64595;SDS011;51003;51.628;6.670;2023-04-24T09:25:58;7.30;;;4.87;;
64595;SDS011;51003;51.628;6.670;2023-04-24T09:28:26;4.80;;;4.20;;
64595;SDS011;51003;51.628;6.670;2023-04-24T09:31:03;5.93;;;4.83;;
64595;SDS011;51003;51.628;6.670;2023-04-24T09:33:29;6.40;;;4.30;;
64595;SDS011;51003;51.628;6.670;2023-04-24T09:35:54;5.23;;;4.13;;
64595;SDS011;51003;51.628;6.670;2023-04-24T09:38:29;4.30;;;3.90;;
64595;SDS011;51003;51.628;6.670;2023-04-24T09:40:58;4.10;;;3.70;;
64595;SDS011;51003;51.628;6.670;2023-04-24T09:43:26;5.93;;;4.50;;
64595;SDS011;51003;51.628;6.670;2023-04-24T09:45:52;5.77;;;4.70;;
64595;SDS011;51003;51.628;6.670;2023-04-24T09:48:29;6.00;;;4.20;;
64595;SDS011;51003;51.628;6.670;2023-04-24T09:50:55;5.97;;;4.97;;
64595;SDS011;51003;51.628;6.670;2023-04-24T09:53:24;10.20;;;4.53;;
64595;SDS011;51003;51.628;6.670;2023-04-24T09:55:50;5.37;;;4.57;;
64595;SDS011;51003;51.628;6.670;2023-04-24T09:58:18;7.17;;;5.37;;
64595;SDS011;51003;51.628;6.670;2023-04-24T10:00:43;8.53;;;5.43;;
64595;SDS011;51003;51.628;6.670;2023-04-24T10:03:11;6.70;;;5.20;;
64595;SDS011;51003;51.628;6.670;2023-04-24T10:05:37;9.80;;;5.20;;
64595;SDS011;51003;51.628;6.670;2023-04-24T10:08:10;7.37;;;5.50;;
64595;SDS011;51003;51.628;6.670;2023-04-24T10:10:41;10.87;;;5.17;;
64595;SDS011;51003;51.628;6.670;2023-04-24T10:13:08;7.80;;;4.57;;
64595;SDS011;51003;51.628;6.670;2023-04-24T10:15:35;8.00;;;4.57;;
64595;SDS011;51003;51.628;6.670;2023-04-24T10:18:00;4.53;;;4.00;;
64595;SDS011;51003;51.628;6.670;2023-04-24T10:20:28;6.23;;;3.73;;
64595;SDS011;51003;51.628;6.670;2023-04-24T10:22:57;15.50;;;4.27;;
64595;SDS011;51003;51.628;6.670;2023-04-24T10:25:24;8.23;;;4.00;;
64595;SDS011;51003;51.628;6.670;2023-04-24T10:27:57;6.07;;;3.97;;
64595;SDS011;51003;51.628;6.670;2023-04-24T10:30:25;8.67;;;4.10;;
64595;SDS011;51003;51.628;6.670;2023-04-24T10:32:52;8.50;;;4.10;;
64595;SDS011;51003;51.628;6.670;2023-04-24T10:35:17;8.83;;;4.03;;
64595;SDS011;51003;51.628;6.670;2023-04-24T10:38:05;13.53;;;4.80;;
64595;SDS011;51003;51.628;6.670;2023-04-24T10:40:33;7.60;;;4.10;;
64595;SDS011;51003;51.628;6.670;2023-04-24T10:43:01;14.00;;;4.20;;
64595;SDS011;51003;51.628;6.670;2023-04-24T10:45:28;13.47;;;4.80;;
64595;SDS011;51003;51.628;6.670;2023-04-24T10:48:04;8.20;;;4.00;;
64595;SDS011;51003;51.628;6.670;2023-04-24T10:53:12;8.70;;;3.70;;
64595;SDS011;51003;51.628;6.670;2023-04-24T10:55:43;6.90;;;2.53;;
64595;SDS011;51003;51.628;6.670;2023-04-24T10:58:16;4.20;;;2.27;;
64595;SDS011;51003;51.628;6.670;2023-04-24T11:00:43;3.67;;;2.70;;
64595;SDS011;51003;51.628;6.670;2023-04-24T11:03:26;7.70;;;2.70;;
64595;SDS011;51003;51.628;6.670;2023-04-24T11:08:37;4.40;;;2.70;;
64595;SDS011;51003;51.628;6.670;2023-04-24T11:11:13;9.50;;;2.90;;
64595;SDS011;51003;51.628;6.670;2023-04-24T11:19:24;4.33;;;2.60;;
64595;SDS011;51003;51.628;6.670;2023-04-24T11:22:04;5.30;;;2.73;;
64595;SDS011;51003;51.628;6.670;2023-04-24T11:29:43;2.73;;;2.47;;
64595;SDS011;51003;51.628;6.670;2023-04-24T11:35:04;4.87;;;2.50;;
64595;SDS011;51003;51.628;6.670;2023-04-24T11:37:43;3.20;;;2.47;;
64595;SDS011;51003;51.628;6.670;2023-04-24T11:40:12;9.23;;;2.30;;
64595;SDS011;51003;51.628;6.670;2023-04-24T11:42:42;4.13;;;2.70;;
64595;SDS011;51003;51.628;6.670;2023-04-24T11:45:08;4.93;;;2.97;;
64595;SDS011;51003;51.628;6.670;2023-04-24T11:47:35;9.00;;;2.80;;
64595;SDS011;51003;51.628;6.670;2023-04-24T11:50:01;4.07;;;2.67;;
64595;SDS011;51003;51.628;6.670;2023-04-24T11:52:28;4.90;;;2.57;;
64595;SDS011;51003;51.628;6.670;2023-04-24T11:54:55;4.63;;;2.50;;
64595;SDS011;51003;51.628;6.670;2023-04-24T11:57:21;5.20;;;2.83;;
64595;SDS011;51003;51.628;6.670;2023-04-24T11:59:47;7.00;;;2.83;;
64595;SDS011;51003;51.628;6.670;2023-04-24T12:02:23;9.20;;;3.47;;
64595;SDS011;51003;51.628;6.670;2023-04-24T12:04:49;4.83;;;2.67;;
64595;SDS011;51003;51.628;6.670;2023-04-24T12:07:15;4.60;;;2.70;;
64595;SDS011;51003;51.628;6.670;2023-04-24T12:09:44;41.00;;;16.63;;
64595;SDS011;51003;51.628;6.670;2023-04-24T12:12:11;3.40;;;2.30;;
64595;SDS011;51003;51.628;6.670;2023-04-24T12:14:44;6.03;;;2.37;;
64595;SDS011;51003;51.628;6.670;2023-04-24T12:17:14;3.50;;;3.20;;
64595;SDS011;51003;51.628;6.670;2023-04-24T12:19:47;5.80;;;4.93;;
64595;SDS011;51003;51.628;6.670;2023-04-24T12:22:13;4.20;;;2.63;;
64595;SDS011;51003;51.628;6.670;2023-04-24T12:27:24;5.53;;;2.20;;
64595;SDS011;51003;51.628;6.670;2023-04-24T12:29:56;5.07;;;2.27;;
64595;SDS011;51003;51.628;6.670;2023-04-24T12:32:22;2.70;;;2.40;;
64595;SDS011;51003;51.628;6.670;2023-04-24T12:34:49;4.43;;;2.30;;
64595;SDS011;51003;51.628;6.670;2023-04-24T12:37:17;4.73;;;2.60;;
64595;SDS011;51003;51.628;6.670;2023-04-24T12:42:30;2.43;;;2.23;;
64595;SDS011;51003;51.628;6.670;2023-04-24T12:44:57;3.07;;;2.43;;
64595;SDS011;51003;51.628;6.670;2023-04-24T12:47:25;3.67;;;2.40;;
64595;SDS011;51003;51.628;6.670;2023-04-24T12:49:50;2.43;;;2.23;;
64595;SDS011;51003;51.628;6.670;2023-04-24T12:52:17;3.33;;;2.37;;
64595;SDS011;51003;51.628;6.670;2023-04-24T12:54:45;1.90;;;1.80;;
64595;SDS011;51003;51.628;6.670;2023-04-24T12:57:10;2.67;;;2.10;;
64595;SDS011;51003;51.628;6.670;2023-04-24T12:59:36;3.40;;;2.20;;
64595;SDS011;51003;51.628;6.670;2023-04-24T13:02:02;1.90;;;1.80;;
64595;SDS011;51003;51.628;6.670;2023-04-24T13:04:27;2.90;;;2.57;;
64595;SDS011;51003;51.628;6.670;2023-04-24T13:06:53;4.13;;;2.50;;
64595;SDS011;51003;51.628;6.670;2023-04-24T13:09:19;5.40;;;2.50;;
64595;SDS011;51003;51.628;6.670;2023-04-24T13:11:45;2.20;;;2.00;;
64595;SDS011;51003;51.628;6.670;2023-04-24T13:14:10;1.97;;;1.87;;
64595;SDS011;51003;51.628;6.670;2023-04-24T13:16:36;2.73;;;1.80;;
64595;SDS011;51003;51.628;6.670;2023-04-24T13:19:02;2.70;;;1.90;;
64595;SDS011;51003;51.628;6.670;2023-04-24T13:21:28;4.40;;;2.60;;
64595;SDS011;51003;51.628;6.670;2023-04-24T13:23:55;4.03;;;2.80;;
64595;SDS011;51003;51.628;6.670;2023-04-24T13:26:21;2.53;;;2.33;;
64595;SDS011;51003;51.628;6.670;2023-04-24T13:28:46;3.43;;;2.90;;
64595;SDS011;51003;51.628;6.670;2023-04-24T13:31:12;6.60;;;2.97;;
64595;SDS011;51003;51.628;6.670;2023-04-24T13:33:38;6.17;;;2.63;;
64595;SDS011;51003;51.628;6.670;2023-04-24T13:36:05;3.53;;;2.50;;
64595;SDS011;51003;51.628;6.670;2023-04-24T13:38:31;2.40;;;2.20;;
64595;SDS011;51003;51.628;6.670;2023-04-24T13:40:57;3.10;;;2.10;;
64595;SDS011;51003;51.628;6.670;2023-04-24T13:43:22;3.57;;;2.40;;
64595;SDS011;51003;51.628;6.670;2023-04-24T13:45:48;3.50;;;2.13;;
64595;SDS011;51003;51.628;6.670;2023-04-24T13:48:14;2.50;;;2.30;;
64595;SDS011;51003;51.628;6.670;2023-04-24T13:50:41;3.80;;;2.33;;
64595;SDS011;51003;51.628;6.670;2023-04-24T13:53:07;3.47;;;2.50;;
64595;SDS011;51003;51.628;6.670;2023-04-24T13:55:32;3.27;;;2.20;;
64595;SDS011;51003;51.628;6.670;2023-04-24T13:57:57;4.50;;;2.50;;
64595;SDS011;51003;51.628;6.670;2023-04-24T14:00:23;3.60;;;2.30;;
64595;SDS011;51003;51.628;6.670;2023-04-24T14:02:49;3.63;;;2.43;;
64595;SDS011;51003;51.628;6.670;2023-04-24T14:05:15;5.57;;;2.50;;
64595;SDS011;51003;51.628;6.670;2023-04-24T14:07:41;3.00;;;2.70;;
64595;SDS011;51003;51.628;6.670;2023-04-24T14:10:07;3.30;;;3.00;;
64595;SDS011;51003;51.628;6.670;2023-04-24T14:12:33;3.30;;;2.90;;
64595;SDS011;51003;51.628;6.670;2023-04-24T14:14:59;3.47;;;3.00;;
64595;SDS011;51003;51.628;6.670;2023-04-24T14:17:26;5.60;;;3.17;;
64595;SDS011;51003;51.628;6.670;2023-04-24T14:19:51;6.27;;;2.70;;
64595;SDS011;51003;51.628;6.670;2023-04-24T14:22:21;3.50;;;2.80;;
64595;SDS011;51003;51.628;6.670;2023-04-24T14:24:46;3.70;;;2.53;;
64595;SDS011;51003;51.628;6.670;2023-04-24T14:27:12;3.30;;;3.10;;
64595;SDS011;51003;51.628;6.670;2023-04-24T14:29:38;3.67;;;2.50;;
64595;SDS011;51003;51.628;6.670;2023-04-24T14:32:04;4.47;;;3.00;;
64595;SDS011;51003;51.628;6.670;2023-04-24T14:34:29;2.97;;;2.67;;
64595;SDS011;51003;51.628;6.670;2023-04-24T14:36:55;2.57;;;2.30;;
64595;SDS011;51003;51.628;6.670;2023-04-24T14:39:21;1.93;;;1.73;;
64595;SDS011;51003;51.628;6.670;2023-04-24T14:41:47;2.20;;;1.83;;
64595;SDS011;51003;51.628;6.670;2023-04-24T14:44:13;1.80;;;1.70;;
64595;SDS011;51003;51.628;6.670;2023-04-24T14:46:39;5.67;;;1.50;;
64595;SDS011;51003;51.628;6.670;2023-04-24T14:49:04;4.80;;;1.70;;
64595;SDS011;51003;51.628;6.670;2023-04-24T14:51:30;1.50;;;1.40;;
64595;SDS011;51003;51.628;6.670;2023-04-24T14:53:56;1.77;;;1.67;;
64595;SDS011;51003;51.628;6.670;2023-04-24T14:56:21;2.80;;;1.70;;
64595;SDS011;51003;51.628;6.670;2023-04-24T14:58:47;1.97;;;1.87;;
64595;SDS011;51003;51.628;6.670;2023-04-24T15:01:13;1.73;;;1.50;;
64595;SDS011;51003;51.628;6.670;2023-04-24T15:03:39;1.87;;;1.50;;